sensor_id;sensor_type;location;lat;lon;timestamp;P1;durP1;ratioP1;P2;durP2;ratioP2
31674;SDS011;18276;45.520;11.018;2023-02-28T00:01:44;10.85;;;7.25;;
31674;SDS011;18276;45.520;11.018;2023-02-28T00:04:11;12.38;;;6.88;;
31674;SDS011;18276;45.520;11.018;2023-02-28T00:06:38;11.90;;;7.15;;
31674;SDS011;18276;45.520;11.018;2023-02-28T00:09:05;10.60;;;6.93;;
31674;SDS011;18276;45.520;11.018;2023-02-28T00:11:32;10.73;;;7.03;;
31674;SDS011;18276;45.520;11.018;2023-02-28T00:13:59;10.52;;;6.78;;
31674;SDS011;18276;45.520;11.018;2023-02-28T00:16:26;9.70;;;6.88;;
31674;SDS011;18276;45.520;11.018;2023-02-28T00:18:53;11.02;;;7.30;;
31674;SDS011;18276;45.520;11.018;2023-02-28T00:21:20;12.10;;;7.70;;
31674;SDS011;18276;45.520;11.018;2023-02-28T00:23:47;12.57;;;8.18;;
31674;SDS011;18276;45.520;11.018;2023-02-28T00:26:14;11.27;;;7.53;;
31674;SDS011;18276;45.520;11.018;2023-02-28T00:28:44;13.23;;;7.82;;
31674;SDS011;18276;45.520;11.018;2023-02-28T00:31:11;11.07;;;7.25;;
31674;SDS011;18276;45.520;11.018;2023-02-28T00:33:38;9.73;;;6.85;;
31674;SDS011;18276;45.520;11.018;2023-02-28T00:36:06;11.10;;;6.32;;
31674;SDS011;18276;45.520;11.018;2023-02-28T00:38:35;11.75;;;6.50;;
31674;SDS011;18276;45.520;11.018;2023-02-28T00:41:03;11.98;;;7.63;;
31674;SDS011;18276;45.520;11.018;2023-02-28T00:43:34;13.23;;;7.95;;
31674;SDS011;18276;45.520;11.018;2023-02-28T00:46:03;10.85;;;6.63;;
31674;SDS011;18276;45.520;11.018;2023-02-28T00:48:30;9.70;;;6.10;;
31674;SDS011;18276;45.520;11.018;2023-02-28T00:50:58;10.30;;;6.07;;
31674;SDS011;18276;45.520;11.018;2023-02-28T00:53:25;9.98;;;6.22;;
31674;SDS011;18276;45.520;11.018;2023-02-28T00:55:52;7.85;;;6.38;;
31674;SDS011;18276;45.520;11.018;2023-02-28T00:58:19;11.13;;;6.35;;
31674;SDS011;18276;45.520;11.018;2023-02-28T01:00:46;10.30;;;5.85;;
31674;SDS011;18276;45.520;11.018;2023-02-28T01:03:17;9.35;;;6.53;;
31674;SDS011;18276;45.520;11.018;2023-02-28T01:05:45;10.98;;;6.57;;
31674;SDS011;18276;45.520;11.018;2023-02-28T01:08:15;10.45;;;6.47;;
31674;SDS011;18276;45.520;11.018;2023-02-28T07:15:02;14.32;;;7.88;;
31674;SDS011;18276;45.520;11.018;2023-02-28T07:27:18;10.68;;;7.95;;
31674;SDS011;18276;45.520;11.018;2023-02-28T15:52:33;17.83;;;10.30;;
31674;SDS011;18276;45.520;11.018;2023-02-28T15:55:11;18.73;;;11.05;;
31674;SDS011;18276;45.520;11.018;2023-02-28T15:57:49;19.35;;;11.10;;
31674;SDS011;18276;45.520;11.018;2023-02-28T16:00:20;22.33;;;13.40;;
31674;SDS011;18276;45.520;11.018;2023-02-28T16:02:49;20.00;;;11.77;;
31674;SDS011;18276;45.520;11.018;2023-02-28T16:05:29;18.10;;;11.35;;
31674;SDS011;18276;45.520;11.018;2023-02-28T16:07:59;17.85;;;10.07;;
31674;SDS011;18276;45.520;11.018;2023-02-28T16:10:29;23.23;;;11.63;;
31674;SDS011;18276;45.520;11.018;2023-02-28T16:12:56;16.10;;;10.50;;
31674;SDS011;18276;45.520;11.018;2023-02-28T16:15:25;18.67;;;8.35;;
31674;SDS011;18276;45.520;11.018;2023-02-28T16:17:55;15.52;;;9.70;;
31674;SDS011;18276;45.520;11.018;2023-02-28T16:20:25;17.00;;;9.50;;
31674;SDS011;18276;45.520;11.018;2023-02-28T16:22:55;15.70;;;9.32;;
31674;SDS011;18276;45.520;11.018;2023-02-28T16:25:23;20.73;;;9.50;;
31674;SDS011;18276;45.520;11.018;2023-02-28T16:27:55;15.88;;;9.07;;
31674;SDS011;18276;45.520;11.018;2023-02-28T16:30:27;17.67;;;10.32;;
31674;SDS011;18276;45.520;11.018;2023-02-28T16:32:58;16.30;;;9.25;;
31674;SDS011;18276;45.520;11.018;2023-02-28T16:35:25;15.60;;;8.57;;
31674;SDS011;18276;45.520;11.018;2023-02-28T16:37:52;17.73;;;10.23;;
31674;SDS011;18276;45.520;11.018;2023-02-28T16:40:21;24.58;;;11.65;;
31674;SDS011;18276;45.520;11.018;2023-02-28T16:42:56;19.42;;;10.23;;
31674;SDS011;18276;45.520;11.018;2023-02-28T16:47:54;16.42;;;9.88;;
31674;SDS011;18276;45.520;11.018;2023-02-28T16:50:25;26.40;;;13.25;;
31674;SDS011;18276;45.520;11.018;2023-02-28T16:52:54;15.15;;;10.05;;
31674;SDS011;18276;45.520;11.018;2023-02-28T16:55:22;18.73;;;9.95;;
31674;SDS011;18276;45.520;11.018;2023-02-28T16:57:54;18.40;;;10.85;;
31674;SDS011;18276;45.520;11.018;2023-02-28T17:00:23;16.27;;;9.50;;
31674;SDS011;18276;45.520;11.018;2023-02-28T17:02:52;20.08;;;11.68;;
31674;SDS011;18276;45.520;11.018;2023-02-28T17:05:20;20.67;;;10.95;;
31674;SDS011;18276;45.520;11.018;2023-02-28T17:07:47;23.42;;;12.25;;
31674;SDS011;18276;45.520;11.018;2023-02-28T17:10:16;25.20;;;12.60;;
31674;SDS011;18276;45.520;11.018;2023-02-28T17:12:45;23.60;;;13.23;;
31674;SDS011;18276;45.520;11.018;2023-02-28T17:15:13;27.33;;;12.95;;
31674;SDS011;18276;45.520;11.018;2023-02-28T17:17:42;23.05;;;12.68;;
31674;SDS011;18276;45.520;11.018;2023-02-28T17:20:13;29.92;;;14.85;;
31674;SDS011;18276;45.520;11.018;2023-02-28T17:22:49;35.97;;;19.33;;
31674;SDS011;18276;45.520;11.018;2023-02-28T17:25:16;37.58;;;19.55;;
31674;SDS011;18276;45.520;11.018;2023-02-28T17:27:43;31.95;;;19.92;;
31674;SDS011;18276;45.520;11.018;2023-02-28T17:32:47;23.48;;;13.50;;
31674;SDS011;18276;45.520;11.018;2023-02-28T17:35:15;24.70;;;12.65;;
31674;SDS011;18276;45.520;11.018;2023-02-28T17:37:42;25.17;;;13.35;;
31674;SDS011;18276;45.520;11.018;2023-02-28T17:40:12;23.13;;;12.63;;
31674;SDS011;18276;45.520;11.018;2023-02-28T17:42:41;21.83;;;12.70;;
31674;SDS011;18276;45.520;11.018;2023-02-28T17:45:09;27.95;;;13.25;;
31674;SDS011;18276;45.520;11.018;2023-02-28T17:47:36;31.77;;;15.50;;
31674;SDS011;18276;45.520;11.018;2023-02-28T17:50:04;27.45;;;14.77;;
31674;SDS011;18276;45.520;11.018;2023-02-28T17:52:32;29.60;;;16.30;;
31674;SDS011;18276;45.520;11.018;2023-02-28T17:55:03;35.63;;;15.77;;
31674;SDS011;18276;45.520;11.018;2023-02-28T17:57:31;43.05;;;17.33;;
31674;SDS011;18276;45.520;11.018;2023-02-28T17:59:58;34.60;;;16.92;;
31674;SDS011;18276;45.520;11.018;2023-02-28T18:02:25;38.05;;;16.02;;
31674;SDS011;18276;45.520;11.018;2023-02-28T18:04:53;36.08;;;16.00;;
31674;SDS011;18276;45.520;11.018;2023-02-28T18:07:20;31.38;;;15.25;;
31674;SDS011;18276;45.520;11.018;2023-02-28T18:09:50;33.53;;;18.17;;
31674;SDS011;18276;45.520;11.018;2023-02-28T18:12:17;30.95;;;17.35;;
31674;SDS011;18276;45.520;11.018;2023-02-28T18:14:44;36.92;;;17.75;;
31674;SDS011;18276;45.520;11.018;2023-02-28T18:17:13;35.65;;;18.13;;
31674;SDS011;18276;45.520;11.018;2023-02-28T18:19:40;39.92;;;18.85;;
31674;SDS011;18276;45.520;11.018;2023-02-28T18:22:07;36.15;;;18.20;;
31674;SDS011;18276;45.520;11.018;2023-02-28T18:24:34;35.28;;;17.70;;
31674;SDS011;18276;45.520;11.018;2023-02-28T18:27:02;33.83;;;20.52;;
31674;SDS011;18276;45.520;11.018;2023-02-28T18:29:29;49.20;;;24.58;;
31674;SDS011;18276;45.520;11.018;2023-02-28T18:31:57;43.10;;;22.95;;
31674;SDS011;18276;45.520;11.018;2023-02-28T18:34:25;39.35;;;21.45;;
31674;SDS011;18276;45.520;11.018;2023-02-28T18:36:53;37.95;;;19.42;;
31674;SDS011;18276;45.520;11.018;2023-02-28T18:39:20;38.78;;;18.65;;
31674;SDS011;18276;45.520;11.018;2023-02-28T18:41:47;38.42;;;18.55;;
31674;SDS011;18276;45.520;11.018;2023-02-28T18:44:14;43.17;;;18.63;;
31674;SDS011;18276;45.520;11.018;2023-02-28T18:46:46;36.78;;;18.60;;
31674;SDS011;18276;45.520;11.018;2023-02-28T18:49:14;38.42;;;18.65;;
31674;SDS011;18276;45.520;11.018;2023-02-28T18:51:41;38.05;;;19.25;;
31674;SDS011;18276;45.520;11.018;2023-02-28T18:54:12;31.35;;;17.33;;
31674;SDS011;18276;45.520;11.018;2023-02-28T18:56:40;35.83;;;17.35;;
31674;SDS011;18276;45.520;11.018;2023-02-28T18:59:08;34.47;;;18.17;;
31674;SDS011;18276;45.520;11.018;2023-02-28T19:01:36;37.53;;;19.40;;
31674;SDS011;18276;45.520;11.018;2023-02-28T19:04:04;34.78;;;16.95;;
31674;SDS011;18276;45.520;11.018;2023-02-28T19:06:32;34.50;;;16.45;;
31674;SDS011;18276;45.520;11.018;2023-02-28T19:09:00;31.55;;;17.40;;
31674;SDS011;18276;45.520;11.018;2023-02-28T19:11:29;35.15;;;19.35;;
31674;SDS011;18276;45.520;11.018;2023-02-28T19:13:56;34.85;;;18.80;;
31674;SDS011;18276;45.520;11.018;2023-02-28T19:16:24;36.97;;;18.20;;
31674;SDS011;18276;45.520;11.018;2023-02-28T19:18:53;41.95;;;21.70;;
31674;SDS011;18276;45.520;11.018;2023-02-28T19:21:21;50.25;;;22.45;;
31674;SDS011;18276;45.520;11.018;2023-02-28T19:23:50;42.92;;;21.02;;
31674;SDS011;18276;45.520;11.018;2023-02-28T19:26:18;41.17;;;21.02;;
31674;SDS011;18276;45.520;11.018;2023-02-28T19:28:47;48.65;;;21.67;;
31674;SDS011;18276;45.520;11.018;2023-02-28T19:31:16;43.53;;;20.08;;
31674;SDS011;18276;45.520;11.018;2023-02-28T19:33:47;33.83;;;18.23;;
31674;SDS011;18276;45.520;11.018;2023-02-28T19:36:14;38.80;;;19.58;;
31674;SDS011;18276;45.520;11.018;2023-02-28T19:38:42;36.22;;;19.15;;
31674;SDS011;18276;45.520;11.018;2023-02-28T19:41:12;42.10;;;19.73;;
31674;SDS011;18276;45.520;11.018;2023-02-28T19:43:40;39.25;;;20.02;;
31674;SDS011;18276;45.520;11.018;2023-02-28T19:46:07;36.25;;;18.75;;
31674;SDS011;18276;45.520;11.018;2023-02-28T19:48:35;37.15;;;18.95;;
31674;SDS011;18276;45.520;11.018;2023-02-28T19:51:03;37.97;;;18.52;;
31674;SDS011;18276;45.520;11.018;2023-02-28T19:53:33;41.05;;;19.25;;
31674;SDS011;18276;45.520;11.018;2023-02-28T19:56:01;39.92;;;18.73;;
31674;SDS011;18276;45.520;11.018;2023-02-28T19:58:30;43.35;;;17.45;;
31674;SDS011;18276;45.520;11.018;2023-02-28T20:00:57;40.80;;;19.08;;
31674;SDS011;18276;45.520;11.018;2023-02-28T20:03:26;42.00;;;21.52;;
31674;SDS011;18276;45.520;11.018;2023-02-28T20:06:00;47.80;;;19.73;;
31674;SDS011;18276;45.520;11.018;2023-02-28T20:08:32;37.70;;;18.85;;
31674;SDS011;18276;45.520;11.018;2023-02-28T20:11:03;43.42;;;20.25;;
31674;SDS011;18276;45.520;11.018;2023-02-28T20:13:31;41.97;;;19.70;;
31674;SDS011;18276;45.520;11.018;2023-02-28T20:16:00;34.78;;;18.98;;
31674;SDS011;18276;45.520;11.018;2023-02-28T20:18:31;35.88;;;17.52;;
31674;SDS011;18276;45.520;11.018;2023-02-28T20:20:59;36.58;;;19.33;;
31674;SDS011;18276;45.520;11.018;2023-02-28T20:23:27;34.22;;;17.48;;
31674;SDS011;18276;45.520;11.018;2023-02-28T20:25:58;45.67;;;20.17;;
31674;SDS011;18276;45.520;11.018;2023-02-28T20:28:26;38.75;;;17.95;;
31674;SDS011;18276;45.520;11.018;2023-02-28T20:30:53;44.15;;;18.30;;
31674;SDS011;18276;45.520;11.018;2023-02-28T20:33:21;34.30;;;17.73;;
31674;SDS011;18276;45.520;11.018;2023-02-28T20:35:48;40.17;;;18.92;;
31674;SDS011;18276;45.520;11.018;2023-02-28T20:38:18;36.45;;;18.80;;
31674;SDS011;18276;45.520;11.018;2023-02-28T20:40:45;42.47;;;19.10;;
31674;SDS011;18276;45.520;11.018;2023-02-28T20:43:12;35.38;;;17.42;;
31674;SDS011;18276;45.520;11.018;2023-02-28T20:45:39;39.38;;;18.58;;
31674;SDS011;18276;45.520;11.018;2023-02-28T20:48:15;42.45;;;19.35;;
31674;SDS011;18276;45.520;11.018;2023-02-28T20:50:46;34.65;;;18.73;;
31674;SDS011;18276;45.520;11.018;2023-02-28T20:53:18;34.35;;;16.80;;
31674;SDS011;18276;45.520;11.018;2023-02-28T20:55:54;38.90;;;18.33;;
31674;SDS011;18276;45.520;11.018;2023-02-28T20:58:24;38.08;;;18.10;;
31674;SDS011;18276;45.520;11.018;2023-02-28T21:01:06;33.15;;;17.73;;
31674;SDS011;18276;45.520;11.018;2023-02-28T21:03:44;35.58;;;17.15;;
31674;SDS011;18276;45.520;11.018;2023-02-28T21:06:17;36.88;;;17.77;;
31674;SDS011;18276;45.520;11.018;2023-02-28T21:08:46;33.92;;;19.00;;
31674;SDS011;18276;45.520;11.018;2023-02-28T21:11:14;31.73;;;18.17;;
31674;SDS011;18276;45.520;11.018;2023-02-28T21:13:47;36.72;;;17.85;;
31674;SDS011;18276;45.520;11.018;2023-02-28T21:16:14;32.10;;;17.38;;
31674;SDS011;18276;45.520;11.018;2023-02-28T21:18:44;35.92;;;18.33;;
31674;SDS011;18276;45.520;11.018;2023-02-28T21:21:18;32.33;;;16.58;;
31674;SDS011;18276;45.520;11.018;2023-02-28T21:23:47;42.75;;;18.23;;
31674;SDS011;18276;45.520;11.018;2023-02-28T21:26:15;34.25;;;17.77;;
31674;SDS011;18276;45.520;11.018;2023-02-28T21:28:48;34.25;;;18.20;;
31674;SDS011;18276;45.520;11.018;2023-02-28T21:31:16;37.45;;;18.20;;
31674;SDS011;18276;45.520;11.018;2023-02-28T21:33:44;34.33;;;18.05;;
31674;SDS011;18276;45.520;11.018;2023-02-28T21:36:16;34.17;;;17.17;;
31674;SDS011;18276;45.520;11.018;2023-02-28T21:38:45;37.28;;;18.83;;
31674;SDS011;18276;45.520;11.018;2023-02-28T21:41:17;41.55;;;17.38;;
31674;SDS011;18276;45.520;11.018;2023-02-28T21:43:46;34.45;;;16.85;;
31674;SDS011;18276;45.520;11.018;2023-02-28T21:46:14;33.90;;;17.35;;
31674;SDS011;18276;45.520;11.018;2023-02-28T21:48:50;35.45;;;17.30;;
31674;SDS011;18276;45.520;11.018;2023-02-28T21:51:18;41.47;;;19.05;;
31674;SDS011;18276;45.520;11.018;2023-02-28T21:53:47;36.90;;;18.27;;
31674;SDS011;18276;45.520;11.018;2023-02-28T21:56:18;37.83;;;18.02;;
31674;SDS011;18276;45.520;11.018;2023-02-28T21:58:49;35.38;;;17.55;;
31674;SDS011;18276;45.520;11.018;2023-02-28T22:01:17;39.63;;;17.40;;
31674;SDS011;18276;45.520;11.018;2023-02-28T22:03:46;32.88;;;17.63;;
31674;SDS011;18276;45.520;11.018;2023-02-28T22:06:15;36.05;;;18.42;;
31674;SDS011;18276;45.520;11.018;2023-02-28T22:08:48;40.30;;;17.83;;
31674;SDS011;18276;45.520;11.018;2023-02-28T22:11:18;33.50;;;17.48;;
31674;SDS011;18276;45.520;11.018;2023-02-28T22:13:45;35.10;;;18.67;;
31674;SDS011;18276;45.520;11.018;2023-02-28T22:16:14;39.42;;;17.92;;
31674;SDS011;18276;45.520;11.018;2023-02-28T22:18:43;41.28;;;18.70;;
31674;SDS011;18276;45.520;11.018;2023-02-28T22:21:11;38.60;;;17.58;;
31674;SDS011;18276;45.520;11.018;2023-02-28T22:23:39;35.97;;;17.08;;
31674;SDS011;18276;45.520;11.018;2023-02-28T22:26:08;34.08;;;17.38;;
31674;SDS011;18276;45.520;11.018;2023-02-28T22:28:36;36.15;;;18.13;;
31674;SDS011;18276;45.520;11.018;2023-02-28T22:33:43;37.65;;;16.55;;
31674;SDS011;18276;45.520;11.018;2023-02-28T22:36:11;37.85;;;18.50;;
31674;SDS011;18276;45.520;11.018;2023-02-28T22:38:40;36.88;;;17.17;;
31674;SDS011;18276;45.520;11.018;2023-02-28T22:41:08;34.45;;;16.90;;
31674;SDS011;18276;45.520;11.018;2023-02-28T22:43:40;36.53;;;16.67;;
31674;SDS011;18276;45.520;11.018;2023-02-28T22:46:08;39.53;;;17.42;;
31674;SDS011;18276;45.520;11.018;2023-02-28T22:48:37;36.15;;;18.35;;
31674;SDS011;18276;45.520;11.018;2023-02-28T22:51:09;44.03;;;17.25;;
31674;SDS011;18276;45.520;11.018;2023-02-28T22:53:40;33.50;;;17.23;;
31674;SDS011;18276;45.520;11.018;2023-02-28T22:56:10;37.92;;;17.95;;
31674;SDS011;18276;45.520;11.018;2023-02-28T22:58:38;37.85;;;19.27;;
31674;SDS011;18276;45.520;11.018;2023-02-28T23:01:12;37.45;;;17.60;;
31674;SDS011;18276;45.520;11.018;2023-02-28T23:03:42;41.00;;;18.70;;
31674;SDS011;18276;45.520;11.018;2023-02-28T23:06:10;39.78;;;17.63;;
31674;SDS011;18276;45.520;11.018;2023-02-28T23:08:45;36.90;;;18.02;;
31674;SDS011;18276;45.520;11.018;2023-02-28T23:11:23;33.90;;;17.23;;
31674;SDS011;18276;45.520;11.018;2023-02-28T23:13:53;34.67;;;17.15;;
31674;SDS011;18276;45.520;11.018;2023-02-28T23:16:45;37.33;;;17.47;;
31674;SDS011;18276;45.520;11.018;2023-02-28T23:19:14;33.83;;;16.65;;
31674;SDS011;18276;45.520;11.018;2023-02-28T23:21:43;30.90;;;17.05;;
31674;SDS011;18276;45.520;11.018;2023-02-28T23:24:13;35.53;;;17.27;;
31674;SDS011;18276;45.520;11.018;2023-02-28T23:26:41;33.50;;;16.25;;
31674;SDS011;18276;45.520;11.018;2023-02-28T23:29:11;34.28;;;17.85;;
31674;SDS011;18276;45.520;11.018;2023-02-28T23:31:39;32.22;;;16.60;;
31674;SDS011;18276;45.520;11.018;2023-02-28T23:34:07;33.92;;;17.48;;
31674;SDS011;18276;45.520;11.018;2023-02-28T23:36:35;32.80;;;17.65;;
31674;SDS011;18276;45.520;11.018;2023-02-28T23:39:04;38.22;;;17.30;;
31674;SDS011;18276;45.520;11.018;2023-02-28T23:41:31;32.67;;;17.25;;
31674;SDS011;18276;45.520;11.018;2023-02-28T23:43:58;35.20;;;18.58;;
31674;SDS011;18276;45.520;11.018;2023-02-28T23:46:25;42.50;;;18.58;;
31674;SDS011;18276;45.520;11.018;2023-02-28T23:48:52;34.08;;;18.88;;
31674;SDS011;18276;45.520;11.018;2023-02-28T23:51:20;34.55;;;18.55;;
31674;SDS011;18276;45.520;11.018;2023-02-28T23:53:49;43.47;;;21.52;;
31674;SDS011;18276;45.520;11.018;2023-02-28T23:56:18;42.22;;;19.52;;
31674;SDS011;18276;45.520;11.018;2023-02-28T23:58:47;36.40;;;17.88;;
